Roza A — TCRB7 — position and weather

sailwx.info

Track history (hours):
 
Tides and Currents Weather Stations Pressure Air Temp Water Temp Dewpoint Dewpoint Depression Visibility Wind Speed Wind Dir Waves Ship Positions

Roza A

Last reported at 2016-Dec-02 20:12 UTC. Time now 2016-Dec-09 23:12 UTC.
Position N 37°58' E 024°38'.

; draft 6.4 m.

Type: Ship (hazmat cat A). MMSI: 271001057.

Date/timePositionNaut miles runAvg speedWind from/ knotsBaromVisibWave heightAir tempDewpointWater temp
2016-Dec-02 20:12N 37°58' E 024°38'711.5
2016-Dec-02 19:33N 37°52' E 024°32'1111.3
2016-Dec-02 18:33N 37°45' E 024°21'1111.1
2016-Dec-02 17:31N 37°37' E 024°11'1211.6
2016-Dec-02 16:32N 37°28' E 024°02'42810.4
2016-Nov-30 23:15N 36°33' E 015°11'2011.1
2016-Nov-30 21:28N 36°36' E 014°47'1111.5
2016-Nov-30 20:32N 36°39' E 014°34'1111.5
2016-Nov-30 19:33N 36°44' E 014°21'1111.4
2016-Nov-30 18:33N 36°49' E 014°08'1111.5
2016-Nov-30 17:33N 36°55' E 013°56'1211.7
2016-Nov-30 16:33N 37°00' E 013°43'9211.2
2016-Nov-30 08:20N 37°49' E 012°06'13311.2
2016-Nov-29 20:28N 38°54' E 009°37'8 9.2
2016-Nov-29 19:33N 38°57' E 009°28'10 9.6
2016-Nov-29 18:33N 39°02' E 009°17'1110.6
2016-Nov-29 17:33N 39°08' E 009°06'5 5.0
2016-Nov-29 16:33N 39°13' E 009°04'0 0.0
2016-Nov-29 15:33N 39°13' E 009°04'0 0.0
2016-Nov-29 14:33N 39°13' E 009°04'0 0.0
2016-Nov-29 13:33N 39°13' E 009°04'0 0.0
2016-Nov-29 12:33N 39°13' E 009°04'0 0.0
2016-Nov-29 11:33N 39°13' E 009°04'0 0.0
2016-Nov-29 10:33N 39°13' E 009°04'0 0.0
2016-Nov-29 09:33N 39°13' E 009°04'0 0.0
2016-Nov-29 08:33N 39°13' E 009°04'0 0.0
2016-Nov-29 07:33N 39°13' E 009°04'1 0.7
2016-Nov-29 06:33N 39°13' E 009°05'2 2.5
2016-Nov-29 05:33N 39°10' E 009°06'0 0.0
2016-Nov-29 04:33N 39°10' E 009°06'0 0.0
2016-Nov-29 03:33N 39°10' E 009°06'0 0.0
2016-Nov-29 02:33N 39°10' E 009°06'0 0.0
2016-Nov-29 01:33N 39°10' E 009°06'0 0.0
2016-Nov-29 00:33N 39°10' E 009°06'0 0.0
2016-Nov-28 23:33N 39°10' E 009°06'0 0.0
2016-Nov-28 22:33N 39°10' E 009°06'0 0.0
2016-Nov-28 21:33N 39°10' E 009°06'0 0.0
2016-Nov-28 20:33N 39°10' E 009°06'0 0.0
2016-Nov-28 19:33N 39°10' E 009°06'0 0.0
2016-Nov-28 18:33N 39°10' E 009°06'0 0.0
2016-Nov-28 17:33N 39°10' E 009°06'0 0.1
2016-Nov-28 16:33N 39°10' E 009°06'0 0.1
2016-Nov-28 15:33N 39°10' E 009°06'0 0.0
2016-Nov-28 14:33N 39°10' E 009°06'0 0.0
2016-Nov-28 13:33N 39°10' E 009°06'0 0.4
2016-Nov-28 12:33N 39°10' E 009°05'10 9.7
2016-Nov-28 11:33N 39°01' E 009°06'1110.7
2016-Nov-28 10:33N 38°53' E 008°57'  
2016-Nov-25 20:33N 35°57' W 005°27'  
Track history (hours):
 
Tides and Currents Weather Stations Pressure Air Temp Water Temp Dewpoint Dewpoint Depression Visibility Wind Speed Wind Dir Waves Ship Positions

Roza A

Last reported at 2016-Dec-02 20:12 UTC. Time now 2016-Dec-09 23:12 UTC.
Position N 37°58' E 024°38'.

; draft 6.4 m.

Type: Ship (hazmat cat A). MMSI: 271001057.

Date/timePositionNaut miles runAvg speedWind from/ knotsBaromVisibWave heightAir tempDewpointWater temp
2016-Dec-02 20:12N 37°58' E 024°38'711.5
2016-Dec-02 19:33N 37°52' E 024°32'1111.3
2016-Dec-02 18:33N 37°45' E 024°21'1111.1
2016-Dec-02 17:31N 37°37' E 024°11'1211.6
2016-Dec-02 16:32N 37°28' E 024°02'42810.4
2016-Nov-30 23:15N 36°33' E 015°11'2011.1
2016-Nov-30 21:28N 36°36' E 014°47'1111.5
2016-Nov-30 20:32N 36°39' E 014°34'1111.5
2016-Nov-30 19:33N 36°44' E 014°21'1111.4
2016-Nov-30 18:33N 36°49' E 014°08'1111.5
2016-Nov-30 17:33N 36°55' E 013°56'1211.7
2016-Nov-30 16:33N 37°00' E 013°43'9211.2
2016-Nov-30 08:20N 37°49' E 012°06'13311.2
2016-Nov-29 20:28N 38°54' E 009°37'8 9.2
2016-Nov-29 19:33N 38°57' E 009°28'10 9.6
2016-Nov-29 18:33N 39°02' E 009°17'1110.6
2016-Nov-29 17:33N 39°08' E 009°06'5 5.0
2016-Nov-29 16:33N 39°13' E 009°04'0 0.0
2016-Nov-29 15:33N 39°13' E 009°04'0 0.0
2016-Nov-29 14:33N 39°13' E 009°04'0 0.0
2016-Nov-29 13:33N 39°13' E 009°04'0 0.0
2016-Nov-29 12:33N 39°13' E 009°04'0 0.0
2016-Nov-29 11:33N 39°13' E 009°04'0 0.0
2016-Nov-29 10:33N 39°13' E 009°04'0 0.0
2016-Nov-29 09:33N 39°13' E 009°04'0 0.0
2016-Nov-29 08:33N 39°13' E 009°04'0 0.0
2016-Nov-29 07:33N 39°13' E 009°04'1 0.7
2016-Nov-29 06:33N 39°13' E 009°05'2 2.5
2016-Nov-29 05:33N 39°10' E 009°06'0 0.0
2016-Nov-29 04:33N 39°10' E 009°06'0 0.0
2016-Nov-29 03:33N 39°10' E 009°06'0 0.0
2016-Nov-29 02:33N 39°10' E 009°06'0 0.0
2016-Nov-29 01:33N 39°10' E 009°06'0 0.0
2016-Nov-29 00:33N 39°10' E 009°06'0 0.0
2016-Nov-28 23:33N 39°10' E 009°06'0 0.0
2016-Nov-28 22:33N 39°10' E 009°06'0 0.0
2016-Nov-28 21:33N 39°10' E 009°06'0 0.0
2016-Nov-28 20:33N 39°10' E 009°06'0 0.0
2016-Nov-28 19:33N 39°10' E 009°06'0 0.0
2016-Nov-28 18:33N 39°10' E 009°06'0 0.0
2016-Nov-28 17:33N 39°10' E 009°06'0 0.1
2016-Nov-28 16:33N 39°10' E 009°06'0 0.1
2016-Nov-28 15:33N 39°10' E 009°06'0 0.0
2016-Nov-28 14:33N 39°10' E 009°06'0 0.0
2016-Nov-28 13:33N 39°10' E 009°06'0 0.4
2016-Nov-28 12:33N 39°10' E 009°05'10 9.7
2016-Nov-28 11:33N 39°01' E 009°06'1110.7
2016-Nov-28 10:33N 38°53' E 008°57'  
2016-Nov-25 20:33N 35°57' W 005°27'  

Dump ship's entire track history